createdAt,value
2023-05-21T00:01:25.866Z,13.17
2023-05-21T00:06:27.946Z,13.06
2023-05-21T00:11:29.772Z,13.09
2023-05-21T00:16:31.721Z,13.17
2023-05-21T00:21:33.655Z,13.15
2023-05-21T00:26:35.882Z,13.05
2023-05-21T00:31:37.925Z,13.02
2023-05-21T00:36:40.651Z,12.95
2023-05-21T00:41:43.226Z,12.91
2023-05-21T00:46:45.358Z,12.82
2023-05-21T00:51:48.366Z,12.78
2023-05-21T00:56:51.198Z,12.72
2023-05-21T01:01:56.248Z,12.62
2023-05-21T01:06:59.329Z,12.58
2023-05-21T01:12:01.731Z,12.51
2023-05-21T01:17:11.716Z,12.42
2023-05-21T01:22:14.363Z,12.24
2023-05-21T01:27:18.396Z,12.19
2023-05-21T01:32:51.561Z,12.14
2023-05-21T01:37:58.437Z,12.11
2023-05-21T01:43:07.505Z,12.08
2023-05-21T01:48:12.306Z,12.06
2023-05-21T01:53:17.311Z,12.06
2023-05-21T01:58:19.980Z,12.07
2023-05-21T02:03:22.037Z,12.10
2023-05-21T02:08:27.950Z,12.07
2023-05-21T02:13:32.454Z,12.00
2023-05-21T02:18:34.203Z,11.89
2023-05-21T02:23:36.212Z,11.78
2023-05-21T02:28:40.551Z,11.66
2023-05-21T02:33:45.314Z,11.59
2023-05-21T02:38:47.774Z,11.54
2023-05-21T02:43:51.641Z,11.48
2023-05-21T02:48:57.921Z,11.47
2023-05-21T02:54:02.485Z,11.44
2023-05-21T02:59:04.329Z,11.40
2023-05-21T03:04:13.409Z,11.34
2023-05-21T03:09:17.700Z,11.30
2023-05-21T03:14:19.467Z,11.30
2023-05-21T03:19:25.183Z,11.25
2023-05-21T03:24:29.591Z,11.19
2023-05-21T03:29:31.550Z,11.12
2023-05-21T03:34:34.947Z,11.08
2023-05-21T03:39:42.257Z,11.56
2023-05-21T03:44:46.205Z,11.33
2023-05-21T03:50:11.332Z,11.27
2023-05-21T03:55:14.105Z,11.28
2023-05-21T04:00:16.129Z,11.24
2023-05-21T04:05:17.862Z,11.19
2023-05-21T04:10:20.396Z,11.23
2023-05-21T04:15:24.444Z,11.38
2023-05-21T04:20:28.688Z,11.49
2023-05-21T04:25:30.521Z,11.51
2023-05-21T04:30:39.480Z,11.57
2023-05-21T04:35:44.648Z,11.63
2023-05-21T04:40:52.262Z,11.66
2023-05-21T04:45:57.590Z,11.72
2023-05-21T04:50:59.925Z,11.81
2023-05-21T04:56:03.231Z,12.01
2023-05-21T05:01:05.463Z,12.14
2023-05-21T05:06:08.483Z,12.20
2023-05-21T05:11:13.394Z,12.30
2023-05-21T05:16:18.434Z,12.41
2023-05-21T05:21:23.299Z,12.54
2023-05-21T05:26:25.652Z,12.71
2023-05-21T05:31:27.558Z,12.88
2023-05-21T05:36:31.687Z,13.00
2023-05-21T05:41:33.727Z,13.10
2023-05-21T05:46:38.026Z,13.13
2023-05-21T05:51:43.080Z,13.17
2023-05-21T05:56:44.983Z,13.23
2023-05-21T06:01:47.217Z,13.31
2023-05-21T06:06:49.168Z,13.37
2023-05-21T06:11:53.451Z,13.49
2023-05-21T06:16:57.647Z,13.53
2023-05-21T06:22:04.737Z,13.58
2023-05-21T06:27:07.287Z,13.67
2023-05-21T06:32:11.607Z,13.89
2023-05-21T06:37:14.437Z,13.99
2023-05-21T06:42:16.561Z,14.07
2023-05-21T06:47:28.468Z,14.27
2023-05-21T06:52:31.861Z,14.48
2023-05-21T06:57:35.635Z,14.70
2023-05-21T07:02:37.541Z,14.75
2023-05-21T07:07:39.635Z,14.84
2023-05-21T07:12:43.765Z,14.92
2023-05-21T07:17:48.587Z,15.06
2023-05-21T07:22:50.695Z,15.16
2023-05-21T07:27:52.725Z,15.24
2023-05-21T07:32:57.403Z,15.37
2023-05-21T07:38:01.656Z,15.51
2023-05-21T07:43:06.465Z,15.66
2023-05-21T07:48:12.098Z,15.79
2023-05-21T07:53:24.655Z,15.90
2023-05-21T07:58:31.112Z,16.04
2023-05-21T08:03:33.896Z,16.16
2023-05-21T08:08:36.900Z,16.23
2023-05-21T08:13:39.136Z,16.47
2023-05-21T08:18:43.283Z,16.74
2023-05-21T08:23:47.519Z,16.94
2023-05-21T08:28:50.111Z,17.11
2023-05-21T08:33:52.821Z,17.33
2023-05-21T08:39:01.558Z,17.40
2023-05-21T08:44:14.249Z,17.41
2023-05-21T08:49:19.329Z,17.54
2023-05-21T08:54:23.516Z,17.84
2023-05-21T08:59:25.774Z,18.04
2023-05-21T09:04:31.501Z,18.17
2023-05-21T09:09:34.999Z,18.29
2023-05-21T09:14:39.548Z,18.40
2023-05-21T09:20:15.026Z,18.44
2023-05-21T09:25:28.023Z,18.50
2023-05-21T09:30:31.912Z,18.83
2023-05-21T09:35:38.327Z,19.03
2023-05-21T09:40:46.638Z,19.36
2023-05-21T09:45:52.942Z,19.47
2023-05-21T09:51:09.393Z,19.48
2023-05-21T09:56:11.385Z,19.80
2023-05-21T10:01:15.916Z,19.92
2023-05-21T10:06:19.193Z,20.08
2023-05-21T10:11:27.487Z,20.34
2023-05-21T10:16:32.893Z,20.40
2023-05-21T10:21:35.087Z,20.57
2023-05-21T10:26:38.488Z,20.46
2023-05-21T10:31:43.779Z,20.61
2023-05-21T10:36:46.414Z,21.02
2023-05-21T10:42:29.711Z,21.37
2023-05-21T10:48:06.092Z,21.84
2023-05-21T10:53:45.413Z,22.34
2023-05-21T10:59:00.074Z,22.42
2023-05-21T11:04:08.306Z,22.41
2023-05-21T11:09:13.986Z,22.07
2023-05-21T11:14:38.963Z,21.79
2023-05-21T11:19:55.727Z,21.85
2023-05-21T11:25:01.698Z,21.97
2023-05-21T11:30:10.331Z,21.95
2023-05-21T11:35:14.103Z,21.92
2023-05-21T11:40:31.118Z,21.84
2023-05-21T11:45:35.271Z,21.89
2023-05-21T11:50:42.362Z,22.07
2023-05-21T11:55:47.434Z,22.18
2023-05-21T12:00:53.867Z,22.07
2023-05-21T12:06:05.521Z,22.05
2023-05-21T12:11:07.432Z,22.10
2023-05-21T12:16:14.183Z,22.24
2023-05-21T12:21:15.979Z,22.53
2023-05-21T12:26:20.033Z,22.91
2023-05-21T12:31:23.271Z,23.52
2023-05-21T12:36:34.384Z,24.13
2023-05-21T12:41:42.986Z,25.18
2023-05-21T12:46:44.952Z,26.02
2023-05-21T12:51:50.227Z,26.79
2023-05-21T12:56:51.975Z,27.63
2023-05-21T13:01:56.747Z,28.35
2023-05-21T13:07:02.864Z,28.89
2023-05-21T13:12:09.450Z,29.98
2023-05-21T13:17:13.852Z,30.86
2023-05-21T13:22:15.734Z,31.96
2023-05-21T13:27:21.011Z,32.33
2023-05-21T13:32:23.019Z,32.73
2023-05-21T13:37:27.203Z,33.22
2023-05-21T13:42:29.049Z,33.33
2023-05-21T13:47:30.937Z,33.52
2023-05-21T13:52:32.728Z,33.97
2023-05-21T13:57:34.648Z,34.85
2023-05-21T14:02:36.621Z,35.15
2023-05-21T14:07:43.325Z,35.23
2023-05-21T14:12:48.647Z,34.87
2023-05-21T14:17:52.324Z,33.68
2023-05-21T14:22:54.183Z,33.40
2023-05-21T14:27:58.276Z,32.91
2023-05-21T14:33:05.704Z,32.22
2023-05-21T14:38:07.666Z,32.63
2023-05-21T14:43:12.409Z,32.44
2023-05-21T14:48:24.697Z,31.91
2023-05-21T14:53:28.709Z,32.05
2023-05-21T14:58:34.758Z,29.97
2023-05-21T15:03:39.645Z,28.92
2023-05-21T15:08:48.604Z,29.02
2023-05-21T15:13:55.067Z,30.67
2023-05-21T15:18:56.895Z,31.38
2023-05-21T15:23:58.713Z,31.75
2023-05-21T15:29:03.928Z,31.39
2023-05-21T15:34:05.814Z,31.57
2023-05-21T15:39:07.790Z,32.02
2023-05-21T15:44:09.586Z,33.05
2023-05-21T15:49:13.540Z,34.16
2023-05-21T15:54:15.558Z,33.63
2023-05-21T15:59:20.803Z,32.08
2023-05-21T16:04:24.935Z,30.73
2023-05-21T16:09:31.609Z,29.84
2023-05-21T16:14:35.911Z,29.05
2023-05-21T16:19:40.419Z,28.54
2023-05-21T16:24:42.371Z,28.12
2023-05-21T16:29:44.728Z,27.75
2023-05-21T16:34:46.567Z,27.28
2023-05-21T16:39:48.369Z,27.10
2023-05-21T16:44:50.453Z,27.04
2023-05-21T16:49:52.759Z,27.29
2023-05-21T16:54:54.525Z,27.27
2023-05-21T16:59:58.924Z,26.92
2023-05-21T17:05:05.336Z,26.57
2023-05-21T17:10:12.278Z,26.21
2023-05-21T17:15:14.065Z,25.95
2023-05-21T17:20:18.214Z,25.81
2023-05-21T17:25:22.479Z,25.73
2023-05-21T17:30:24.474Z,25.74
2023-05-21T17:35:28.532Z,25.69
2023-05-21T17:40:32.515Z,25.55
2023-05-21T17:45:34.383Z,25.35
2023-05-21T17:50:36.195Z,25.11
2023-05-21T17:55:38.214Z,24.90
2023-05-21T18:00:40.448Z,24.66
2023-05-21T18:05:44.658Z,24.36
2023-05-21T18:10:48.029Z,24.14
2023-05-21T18:15:49.915Z,23.93
2023-05-21T18:20:55.574Z,23.71
2023-05-21T18:25:57.397Z,23.46
2023-05-21T18:31:03.835Z,23.25
2023-05-21T18:36:05.946Z,23.08
2023-05-21T18:41:10.019Z,22.84
2023-05-21T18:46:14.395Z,22.65
2023-05-21T18:51:16.279Z,22.46
2023-05-21T18:56:18.140Z,22.33
2023-05-21T19:01:19.946Z,22.20
2023-05-21T19:06:25.581Z,22.52
2023-05-21T19:11:31.037Z,22.18
2023-05-21T19:16:35.328Z,22.04
2023-05-21T19:21:42.097Z,21.91
2023-05-21T19:26:43.828Z,21.82
2023-05-21T19:31:48.768Z,21.73
2023-05-21T19:36:53.674Z,21.66
2023-05-21T19:41:57.810Z,21.59
2023-05-21T19:47:04.929Z,21.52
2023-05-21T19:52:06.749Z,21.48
2023-05-21T19:57:13.220Z,21.39
2023-05-21T20:02:17.090Z,21.33
2023-05-21T20:07:18.940Z,21.25
2023-05-21T20:12:23.573Z,21.17
2023-05-21T20:17:25.572Z,21.09
2023-05-21T20:22:28.166Z,20.97
2023-05-21T20:27:34.460Z,20.87
2023-05-21T20:32:37.490Z,20.80
2023-05-21T20:37:44.202Z,20.72
2023-05-21T20:42:50.417Z,20.65
2023-05-21T20:47:53.628Z,20.60
2023-05-21T20:52:55.494Z,20.55
2023-05-21T20:58:00.218Z,20.50
2023-05-21T21:03:03.857Z,20.45
2023-05-21T21:08:08.285Z,20.35
2023-05-21T21:13:10.307Z,20.27
2023-05-21T21:18:12.592Z,20.22
2023-05-21T21:23:17.506Z,20.17
2023-05-21T21:28:22.248Z,20.10
2023-05-21T21:33:26.556Z,20.02
2023-05-21T21:38:33.033Z,19.94
2023-05-21T21:43:34.994Z,19.86
2023-05-21T21:48:36.720Z,19.79
2023-05-21T21:53:42.938Z,19.73
2023-05-21T21:58:45.042Z,19.68
2023-05-21T22:03:46.932Z,19.59
2023-05-21T22:08:48.746Z,19.51
2023-05-21T22:13:50.644Z,19.44
2023-05-21T22:18:54.154Z,19.37
2023-05-21T22:23:56.252Z,19.30
2023-05-21T22:28:59.089Z,19.24
2023-05-21T22:34:00.814Z,19.17
2023-05-21T22:39:02.576Z,19.10
2023-05-21T22:44:06.714Z,19.04
2023-05-21T22:49:10.723Z,18.97
2023-05-21T22:54:14.737Z,18.94
2023-05-21T22:59:18.702Z,18.89
2023-05-21T23:04:35.786Z,18.86
2023-05-21T23:09:44.273Z,18.85
2023-05-21T23:14:49.056Z,18.86
2023-05-21T23:19:52.436Z,18.85
2023-05-21T23:24:56.395Z,18.81
2023-05-21T23:30:00.405Z,18.77
2023-05-21T23:35:08.175Z,18.72
2023-05-21T23:40:10.975Z,18.65
2023-05-21T23:45:12.790Z,18.62
2023-05-21T23:50:16.859Z,18.58
2023-05-21T23:55:21.094Z,18.50
